createdAt,value
2022-11-19T00:01:26.349Z,98419.73
2022-11-19T00:03:54.694Z,98419.23
2022-11-19T00:06:25.135Z,98415.83
2022-11-19T00:08:53.609Z,98417.38
2022-11-19T00:11:42.257Z,98420.11
2022-11-19T00:14:12.614Z,98422.03
2022-11-19T00:16:40.867Z,98420.27
2022-11-19T00:19:11.003Z,98426.04
2022-11-19T00:21:38.801Z,98427.38
2022-11-19T00:24:07.111Z,98429.17
2022-11-19T00:26:34.826Z,98428.47
2022-11-19T00:29:02.553Z,98426.86
2022-11-19T00:31:30.211Z,98432.84
2022-11-19T00:33:57.809Z,98431.64
2022-11-19T00:36:25.374Z,98432.80
2022-11-19T00:38:52.943Z,98435.17
2022-11-19T00:41:20.591Z,98445.92
2022-11-19T00:43:49.039Z,98450.01
2022-11-19T00:46:22.208Z,98449.23
2022-11-19T00:48:51.304Z,98449.80
2022-11-19T00:51:20.057Z,98452.09
2022-11-19T00:53:47.832Z,98452.63
2022-11-19T00:56:18.136Z,98450.77
2022-11-19T00:58:46.441Z,98455.33
2022-11-19T01:01:15.294Z,98456.35
2022-11-19T01:03:45.617Z,98455.58
2022-11-19T01:06:18.858Z,98462.88
2022-11-19T01:08:48.235Z,98459.51
2022-11-19T01:11:19.951Z,98455.84
2022-11-19T01:13:48.385Z,98453.34
2022-11-19T01:16:22.034Z,98456.28
2022-11-19T01:18:50.721Z,98455.38
2022-11-19T01:21:19.984Z,98456.14
2022-11-19T01:23:48.030Z,98459.40
2022-11-19T01:26:16.243Z,98455.40
2022-11-19T01:28:44.518Z,98454.58
2022-11-19T01:31:19.403Z,98452.91
2022-11-19T01:33:47.939Z,98454.19
2022-11-19T01:36:23.757Z,98455.52
2022-11-19T01:38:51.890Z,98452.34
2022-11-19T01:41:28.437Z,98452.05
2022-11-19T01:43:59.288Z,98453.95
2022-11-19T01:46:29.911Z,98451.27
2022-11-19T01:49:04.649Z,98451.70
2022-11-19T01:51:39.090Z,98454.54
2022-11-19T01:54:35.906Z,98453.87
2022-11-19T01:57:08.177Z,98455.45
2022-11-19T01:59:36.299Z,98454.58
2022-11-19T02:02:03.943Z,98452.59
2022-11-19T02:04:32.551Z,98452.33
2022-11-19T02:07:01.726Z,98459.38
2022-11-19T02:09:29.513Z,98460.19
2022-11-19T02:12:07.820Z,98461.95
2022-11-19T02:14:49.257Z,98462.09
2022-11-19T02:17:26.025Z,98468.65
2022-11-19T02:20:24.492Z,98467.13
2022-11-19T02:23:27.647Z,98471.14
2022-11-19T02:26:24.749Z,98469.06
2022-11-19T02:28:55.534Z,98473.92
2022-11-19T02:31:49.911Z,98477.14
2022-11-19T02:34:38.869Z,98480.47
2022-11-19T02:37:15.120Z,98485.42
2022-11-19T02:39:52.868Z,98481.91
2022-11-19T02:42:34.124Z,98483.63
2022-11-19T02:45:30.935Z,98480.75
2022-11-19T02:48:12.013Z,98477.70
2022-11-19T02:50:46.345Z,98483.27
2022-11-19T02:53:14.116Z,98483.52
2022-11-19T02:55:41.966Z,98487.55
2022-11-19T02:58:33.183Z,98486.64
2022-11-19T03:01:21.304Z,98479.73
2022-11-19T03:04:08.167Z,98483.90
2022-11-19T03:06:36.023Z,98486.96
2022-11-19T03:09:03.968Z,98486.59
2022-11-19T03:11:32.471Z,98490.15
2022-11-19T03:14:27.867Z,98487.46
2022-11-19T03:17:02.156Z,98492.02
2022-11-19T03:19:54.316Z,98493.83
2022-11-19T03:22:26.736Z,98498.69
2022-11-19T03:25:38.218Z,98499.25
2022-11-19T03:28:12.028Z,98501.29
2022-11-19T03:30:41.030Z,98504.22
2022-11-19T03:33:11.346Z,98508.44
2022-11-19T03:35:52.176Z,98508.20
2022-11-19T03:38:29.730Z,98504.45
2022-11-19T03:40:58.092Z,98503.27
2022-11-19T03:43:28.141Z,98508.36
2022-11-19T03:45:57.331Z,98510.81
2022-11-19T03:48:25.994Z,98512.59
2022-11-19T03:50:57.979Z,98514.21
2022-11-19T03:53:25.979Z,98518.98
2022-11-19T03:56:05.155Z,98528.34
2022-11-19T03:58:38.341Z,98532.39
2022-11-19T04:01:06.434Z,98531.27
2022-11-19T04:03:34.295Z,98533.31
2022-11-19T04:06:03.080Z,98531.32
2022-11-19T04:08:31.157Z,98532.38
2022-11-19T04:13:25.545Z,98531.30
2022-11-19T04:15:53.144Z,98531.98
2022-11-19T04:18:20.715Z,98528.35
2022-11-19T04:20:48.298Z,98534.21
2022-11-19T04:23:15.861Z,98533.78
2022-11-19T04:25:47.335Z,98536.80
2022-11-19T04:28:15.015Z,98539.26
2022-11-19T04:30:43.063Z,98549.23
2022-11-19T04:33:10.650Z,98553.20
2022-11-19T04:35:38.209Z,98557.23
2022-11-19T04:38:05.771Z,98560.86
2022-11-19T04:40:33.328Z,98559.52
2022-11-19T04:43:01.189Z,98560.79
2022-11-19T04:45:28.734Z,98558.95
2022-11-19T04:47:56.295Z,98565.20
2022-11-19T04:50:23.922Z,98564.54
2022-11-19T04:52:51.562Z,98568.72
2022-11-19T04:55:19.132Z,98570.10
2022-11-19T04:57:46.708Z,98574.91
2022-11-19T05:00:15.360Z,98577.88
2022-11-19T05:02:43.007Z,98577.77
2022-11-19T05:05:10.640Z,98575.73
2022-11-19T05:07:38.253Z,98580.54
2022-11-19T05:10:06.307Z,98585.94
2022-11-19T05:12:33.886Z,98587.13
2022-11-19T05:15:01.738Z,98598.70
2022-11-19T05:17:29.344Z,98602.65
2022-11-19T05:19:59.568Z,98605.73
2022-11-19T05:22:27.195Z,98603.16
2022-11-19T05:24:54.784Z,98609.02
2022-11-19T05:27:22.396Z,98609.94
2022-11-19T05:29:50.228Z,98614.50
2022-11-19T05:32:17.807Z,98616.08
2022-11-19T05:34:45.364Z,98619.52
2022-11-19T05:37:12.927Z,98621.58
2022-11-19T05:39:40.505Z,98621.39
2022-11-19T05:42:08.092Z,98625.50
2022-11-19T05:44:35.672Z,98622.65
2022-11-19T05:47:03.347Z,98628.10
2022-11-19T05:49:30.925Z,98629.86
2022-11-19T05:51:58.582Z,98631.35
2022-11-19T05:54:26.224Z,98628.55
2022-11-19T05:56:53.878Z,98630.30
2022-11-19T05:59:22.024Z,98634.50
2022-11-19T06:01:49.786Z,98638.75
2022-11-19T06:04:17.516Z,98639.63
2022-11-19T06:06:45.526Z,98642.30
2022-11-19T06:09:13.117Z,98643.98
2022-11-19T06:11:53.017Z,98648.21
2022-11-19T06:14:22.832Z,98654.88
2022-11-19T06:16:55.130Z,98654.19
2022-11-19T06:19:23.567Z,98656.63
2022-11-19T06:21:51.962Z,98654.89
2022-11-19T06:24:19.638Z,98651.65
2022-11-19T06:26:47.542Z,98651.55
2022-11-19T06:29:16.844Z,98652.84
2022-11-19T06:31:45.187Z,98660.58
2022-11-19T06:34:13.182Z,98658.81
2022-11-19T06:36:46.242Z,98660.30
2022-11-19T06:39:17.197Z,98666.20
2022-11-19T06:41:45.020Z,98663.53
2022-11-19T06:44:12.571Z,98665.75
2022-11-19T06:46:40.339Z,98667.36
2022-11-19T06:49:09.057Z,98666.96
2022-11-19T06:51:36.645Z,98669.17
2022-11-19T06:54:04.251Z,98670.46
2022-11-19T06:56:31.808Z,98676.99
2022-11-19T06:58:59.663Z,98677.55
2022-11-19T07:01:27.610Z,98681.42
2022-11-19T07:03:55.237Z,98681.81
2022-11-19T07:06:22.833Z,98683.31
2022-11-19T07:08:50.376Z,98682.13
2022-11-19T07:11:27.072Z,98688.68
2022-11-19T07:13:57.822Z,98686.31
2022-11-19T07:16:30.780Z,98686.75
2022-11-19T07:19:04.007Z,98689.27
2022-11-19T07:21:32.211Z,98686.40
2022-11-19T07:24:01.355Z,98687.56
2022-11-19T07:26:30.962Z,98685.55
2022-11-19T07:29:04.834Z,98685.80
2022-11-19T07:31:33.394Z,98687.96
2022-11-19T07:34:01.075Z,98688.94
2022-11-19T07:36:28.707Z,98686.54
2022-11-19T07:38:57.621Z,98684.38
2022-11-19T07:42:03.947Z,98686.54
2022-11-19T07:44:34.264Z,98683.58
2022-11-19T07:47:02.380Z,98682.69
2022-11-19T07:49:29.995Z,98688.46
2022-11-19T07:51:57.623Z,98688.30
2022-11-19T07:54:25.330Z,98687.16
2022-11-19T07:56:52.911Z,98686.23
2022-11-19T07:59:20.784Z,98685.17
2022-11-19T08:01:48.785Z,98687.30
2022-11-19T08:04:16.639Z,98691.59
2022-11-19T08:06:44.240Z,98688.20
2022-11-19T08:09:12.103Z,98688.07
2022-11-19T08:11:40.510Z,98690.52
2022-11-19T08:14:08.518Z,98691.67
2022-11-19T08:16:55.016Z,98699.14
2022-11-19T08:19:23.131Z,98695.14
2022-11-19T08:21:51.323Z,98698.45
2022-11-19T08:24:20.588Z,98699.25
2022-11-19T08:26:49.071Z,98698.73
2022-11-19T08:29:18.451Z,98697.50
2022-11-19T08:31:47.875Z,98700.99
2022-11-19T08:34:16.635Z,98700.63
2022-11-19T08:36:44.347Z,98700.83
2022-11-19T08:39:11.988Z,98702.50
2022-11-19T08:41:58.179Z,98699.13
2022-11-19T08:44:25.802Z,98702.87
2022-11-19T08:46:53.656Z,98703.47
2022-11-19T08:49:21.366Z,98707.35
2022-11-19T08:51:48.959Z,98710.83
2022-11-19T08:54:16.994Z,98711.73
2022-11-19T08:56:44.963Z,98713.34
2022-11-19T08:59:12.524Z,98718.13
2022-11-19T09:01:40.110Z,98723.38
2022-11-19T09:04:07.707Z,98720.17
2022-11-19T09:06:35.426Z,98719.33
2022-11-19T09:09:04.383Z,98716.18
2022-11-19T09:11:32.103Z,98715.20
2022-11-19T09:13:59.664Z,98718.73
2022-11-19T09:16:27.578Z,98719.94
2022-11-19T09:18:55.165Z,98719.17
2022-11-19T09:21:22.765Z,98723.98
2022-11-19T09:23:50.351Z,98719.25
2022-11-19T09:26:18.727Z,98717.03
2022-11-19T09:28:46.426Z,98720.54
2022-11-19T09:31:16.768Z,98727.41
2022-11-19T09:33:50.045Z,98731.52
2022-11-19T09:36:18.537Z,98729.69
2022-11-19T09:38:46.889Z,98731.60
2022-11-19T09:41:17.554Z,98730.36
2022-11-19T09:43:49.103Z,98729.23
2022-11-19T09:46:24.781Z,98726.39
2022-11-19T09:48:54.314Z,98722.27
2022-11-19T09:51:29.013Z,98730.27
2022-11-19T09:53:59.016Z,98738.39
2022-11-19T09:56:31.071Z,98735.89
2022-11-19T09:58:59.002Z,98727.75
2022-11-19T10:01:28.262Z,98725.46
2022-11-19T10:03:56.064Z,98719.48
2022-11-19T10:06:34.763Z,98720.11
2022-11-19T10:09:05.390Z,98720.68
2022-11-19T10:11:53.464Z,98716.42
2022-11-19T10:14:36.396Z,98720.54
2022-11-19T10:17:06.645Z,98714.84
2022-11-19T10:19:41.279Z,98715.24
2022-11-19T10:22:20.510Z,98716.34
2022-11-19T10:24:57.538Z,98712.56
2022-11-19T10:27:37.073Z,98714.97
2022-11-19T10:30:16.859Z,98718.66
2022-11-19T10:32:51.468Z,98713.92
2022-11-19T10:35:24.125Z,98716.87
2022-11-19T10:37:58.580Z,98717.23
2022-11-19T10:40:43.752Z,98718.71
2022-11-19T10:43:38.108Z,98717.17
2022-11-19T10:46:09.442Z,98716.60
2022-11-19T10:48:43.463Z,98715.97
2022-11-19T10:51:23.421Z,98714.09
2022-11-19T10:53:51.530Z,98715.25
2022-11-19T10:56:22.220Z,98712.27
2022-11-19T10:58:58.410Z,98709.77
2022-11-19T11:01:32.000Z,98714.58
2022-11-19T11:04:17.336Z,98715.46
2022-11-19T11:06:55.622Z,98712.51
2022-11-19T11:09:37.866Z,98708.39
2022-11-19T11:12:44.387Z,98707.70
2022-11-19T11:15:19.019Z,98708.80
2022-11-19T11:17:47.543Z,98714.80
2022-11-19T11:20:18.150Z,98714.48
2022-11-19T11:22:48.969Z,98715.14
2022-11-19T11:25:22.173Z,98711.32
2022-11-19T11:28:05.427Z,98711.54
2022-11-19T11:30:34.077Z,98710.61
2022-11-19T11:33:24.232Z,98706.48
2022-11-19T11:35:53.263Z,98702.07
2022-11-19T11:38:24.508Z,98699.79
2022-11-19T11:44:04.625Z,98692.21
2022-11-19T11:46:38.356Z,98693.85
2022-11-19T11:49:20.725Z,98695.17
2022-11-19T11:51:56.871Z,98701.31
2022-11-19T11:54:24.635Z,98700.79
2022-11-19T11:56:52.204Z,98702.24
2022-11-19T11:59:23.070Z,98702.02
2022-11-19T12:02:19.849Z,98701.68
2022-11-19T12:04:49.422Z,98704.44
2022-11-19T12:07:47.940Z,98706.63
2022-11-19T12:10:52.205Z,98710.26
2022-11-19T12:13:42.803Z,98713.46
2022-11-19T12:16:20.390Z,98716.45
2022-11-19T12:19:02.121Z,98720.80
2022-11-19T12:21:41.696Z,98716.52
2022-11-19T12:24:18.769Z,98720.65
2022-11-19T12:27:31.760Z,98724.29
2022-11-19T12:30:18.234Z,98723.48
2022-11-19T12:33:07.871Z,98725.42
2022-11-19T12:35:47.352Z,98722.21
2022-11-19T12:39:03.408Z,98720.29
2022-11-19T12:41:48.095Z,98721.34
2022-11-19T12:44:29.462Z,98722.46
2022-11-19T12:47:22.430Z,98723.77
2022-11-19T12:49:57.772Z,98726.20
2022-11-19T12:52:35.679Z,98729.44
2022-11-19T12:55:25.339Z,98729.83
2022-11-19T12:58:17.607Z,98723.36
2022-11-19T13:00:52.804Z,98723.02
2022-11-19T13:03:32.958Z,98723.20
2022-11-19T13:06:03.284Z,98722.79
2022-11-19T13:08:43.017Z,98721.02
2022-11-19T13:11:28.351Z,98717.46
2022-11-19T13:14:01.068Z,98714.10
2022-11-19T13:16:30.844Z,98717.05
2022-11-19T13:19:14.519Z,98720.71
2022-11-19T13:22:04.500Z,98716.52
2022-11-19T13:24:40.371Z,98718.80
2022-11-19T13:27:16.494Z,98724.56
2022-11-19T13:30:18.902Z,98723.54
2022-11-19T13:33:10.888Z,98722.63
2022-11-19T13:35:52.972Z,98716.02
2022-11-19T13:38:44.990Z,98715.89
2022-11-19T13:41:24.279Z,98714.77
2022-11-19T13:44:14.428Z,98712.21
2022-11-19T13:46:53.481Z,98705.67
2022-11-19T13:49:34.191Z,98702.17
2022-11-19T13:52:07.382Z,98709.90
2022-11-19T13:54:37.123Z,98715.62
2022-11-19T13:57:06.122Z,98718.55
2022-11-19T13:59:40.295Z,98732.52
2022-11-19T14:02:27.351Z,98741.28
2022-11-19T14:05:06.198Z,98742.27
2022-11-19T14:07:50.154Z,98736.94
2022-11-19T14:10:27.589Z,98737.28
2022-11-19T14:13:16.758Z,98734.90
2022-11-19T14:16:15.182Z,98732.06
2022-11-19T14:19:05.098Z,98728.50
2022-11-19T14:21:54.567Z,98730.30
2022-11-19T14:24:44.073Z,98727.48
2022-11-19T14:27:17.222Z,98731.52
2022-11-19T14:29:44.776Z,98730.55
2022-11-19T14:32:12.675Z,98728.89
2022-11-19T14:34:46.793Z,98732.80
2022-11-19T14:37:21.688Z,98736.34
2022-11-19T14:39:55.770Z,98737.20
2022-11-19T14:42:23.333Z,98736.84
2022-11-19T14:45:02.997Z,98740.34
2022-11-19T14:47:35.891Z,98749.77
2022-11-19T14:50:22.259Z,98751.45
2022-11-19T14:52:52.317Z,98755.90
2022-11-19T14:55:23.435Z,98760.15
2022-11-19T14:57:57.185Z,98761.45
2022-11-19T15:00:37.649Z,98768.65
2022-11-19T15:03:08.600Z,98761.45
2022-11-19T15:05:40.535Z,98757.98
2022-11-19T15:08:17.353Z,98760.45
2022-11-19T15:11:08.022Z,98753.89
2022-11-19T15:13:37.622Z,98748.69
2022-11-19T15:16:17.459Z,98747.21
2022-11-19T15:18:45.004Z,98747.06
2022-11-19T15:21:42.250Z,98743.83
2022-11-19T15:24:23.684Z,98745.59
2022-11-19T15:27:17.355Z,98743.37
2022-11-19T15:30:03.414Z,98744.34
2022-11-19T15:32:50.031Z,98740.20
2022-11-19T15:35:55.022Z,98735.85
2022-11-19T15:38:22.626Z,98734.92
2022-11-19T15:40:55.235Z,98734.17
2022-11-19T15:43:33.547Z,98736.88
2022-11-19T15:46:07.371Z,98744.30
2022-11-19T15:49:01.967Z,98744.13
2022-11-19T15:51:33.051Z,98743.77
2022-11-19T15:54:02.742Z,98748.23
2022-11-19T15:56:47.559Z,98754.45
2022-11-19T15:59:17.334Z,98752.19
2022-11-19T16:01:46.464Z,98747.98
2022-11-19T16:04:16.053Z,98739.88
2022-11-19T16:06:45.748Z,98726.11
2022-11-19T16:09:19.166Z,98715.76
2022-11-19T16:12:05.934Z,98714.14
2022-11-19T16:14:52.299Z,98708.98
2022-11-19T16:17:43.538Z,98713.77
2022-11-19T16:20:12.483Z,98716.60
2022-11-19T16:23:02.187Z,98727.55
2022-11-19T16:25:43.034Z,98731.48
2022-11-19T16:28:12.901Z,98735.52
2022-11-19T16:30:48.203Z,98738.83
2022-11-19T16:33:21.178Z,98743.20
2022-11-19T16:35:52.849Z,98744.33
2022-11-19T16:38:27.754Z,98742.54
2022-11-19T16:41:15.264Z,98745.75
2022-11-19T16:43:44.805Z,98754.69
2022-11-19T16:46:16.044Z,98761.54
2022-11-19T16:48:49.941Z,98757.30
2022-11-19T16:51:40.220Z,98758.80
2022-11-19T16:54:10.152Z,98755.84
2022-11-19T16:56:43.955Z,98753.65
2022-11-19T16:59:20.554Z,98745.83
2022-11-19T17:01:54.619Z,98746.83
2022-11-19T17:04:29.025Z,98744.23
2022-11-19T17:06:59.806Z,98737.63
2022-11-19T17:09:41.528Z,98730.81
2022-11-19T17:12:27.247Z,98729.66
2022-11-19T17:14:59.715Z,98729.45
2022-11-19T17:17:41.206Z,98739.45
2022-11-19T17:20:30.497Z,98754.23
2022-11-19T17:22:59.876Z,98765.09
2022-11-19T17:25:27.852Z,98766.98
2022-11-19T17:27:56.924Z,98771.59
2022-11-19T17:30:27.164Z,98775.14
2022-11-19T17:33:04.951Z,98772.86
2022-11-19T17:35:43.322Z,98779.31
2022-11-19T17:38:12.162Z,98775.63
2022-11-19T17:41:02.311Z,98770.49
2022-11-19T17:43:51.538Z,98772.20
2022-11-19T17:46:19.918Z,98777.38
2022-11-19T17:48:48.993Z,98778.34
2022-11-19T17:51:21.832Z,98783.69
2022-11-19T17:53:51.696Z,98784.30
2022-11-19T17:56:25.180Z,98786.19
2022-11-19T17:58:53.407Z,98794.02
2022-11-19T18:01:21.788Z,98797.92
2022-11-19T18:03:49.579Z,98795.61
2022-11-19T18:06:18.130Z,98797.67
2022-11-19T18:08:46.121Z,98795.80
2022-11-19T18:11:17.198Z,98795.70
2022-11-19T18:13:45.863Z,98788.54
2022-11-19T18:16:18.874Z,98785.15
2022-11-19T18:18:46.960Z,98785.52
2022-11-19T18:21:17.180Z,98790.17
2022-11-19T18:23:45.440Z,98786.77
2022-11-19T18:26:15.053Z,98783.58
2022-11-19T18:28:43.830Z,98783.36
2022-11-19T18:31:23.489Z,98776.29
2022-11-19T18:33:51.092Z,98780.28
2022-11-19T18:36:19.060Z,98785.69
2022-11-19T18:38:46.866Z,98786.77
2022-11-19T18:41:18.830Z,98785.61
2022-11-19T18:44:05.371Z,98785.80
2022-11-19T18:46:33.023Z,98789.10
2022-11-19T18:49:00.647Z,98786.95
2022-11-19T18:51:30.600Z,98790.05
2022-11-19T18:53:58.343Z,98790.37
2022-11-19T18:56:26.318Z,98787.52
2022-11-19T18:58:54.502Z,98783.95
2022-11-19T19:01:23.943Z,98783.02
2022-11-19T19:03:52.436Z,98785.17
2022-11-19T19:06:22.995Z,98786.98
2022-11-19T19:08:50.686Z,98794.81
2022-11-19T19:11:37.290Z,98796.34
2022-11-19T19:14:04.992Z,98800.58
2022-11-19T19:16:32.917Z,98800.70
2022-11-19T19:19:01.696Z,98800.92
2022-11-19T19:21:29.704Z,98805.02
2022-11-19T19:23:57.272Z,98809.08
2022-11-19T19:26:25.055Z,98811.27
2022-11-19T19:28:54.446Z,98809.79
2022-11-19T19:31:23.437Z,98807.89
2022-11-19T19:33:51.757Z,98814.40
2022-11-19T19:36:21.890Z,98815.80
2022-11-19T19:38:49.495Z,98815.34
2022-11-19T19:41:20.971Z,98819.16
2022-11-19T19:43:50.340Z,98811.77
2022-11-19T19:46:20.383Z,98812.36
2022-11-19T19:48:50.102Z,98810.50
2022-11-19T19:51:18.947Z,98816.05
2022-11-19T19:53:47.078Z,98812.80
2022-11-19T19:56:22.510Z,98816.92
2022-11-19T19:58:51.197Z,98811.50
2022-11-19T20:01:27.768Z,98809.20
2022-11-19T20:04:06.433Z,98806.89
2022-11-19T20:06:35.488Z,98806.64
2022-11-19T20:09:08.947Z,98807.66
2022-11-19T20:11:37.878Z,98808.35
2022-11-19T20:14:05.722Z,98810.02
2022-11-19T20:16:35.032Z,98805.08
2022-11-19T20:19:03.379Z,98803.66
2022-11-19T20:21:33.916Z,98806.89
2022-11-19T20:24:07.186Z,98802.16
2022-11-19T20:26:39.004Z,98802.69
2022-11-19T20:29:06.845Z,98806.27
2022-11-19T20:31:35.100Z,98798.63
2022-11-19T20:34:04.608Z,98802.36
2022-11-19T20:36:33.916Z,98796.34
2022-11-19T20:39:02.098Z,98801.59
2022-11-19T20:41:48.380Z,98804.48
2022-11-19T20:44:20.763Z,98798.56
2022-11-19T20:46:53.043Z,98796.18
2022-11-19T20:49:23.337Z,98798.70
2022-11-19T20:51:52.493Z,98796.79
2022-11-19T20:54:21.604Z,98797.81
2022-11-19T20:56:50.640Z,98797.33
2022-11-19T20:59:18.949Z,98798.52
2022-11-19T21:01:51.074Z,98801.02
2022-11-19T21:04:19.944Z,98802.42
2022-11-19T21:06:49.714Z,98808.17
2022-11-19T21:09:19.923Z,98812.23
2022-11-19T21:11:48.144Z,98812.46
2022-11-19T21:14:15.844Z,98815.85
2022-11-19T21:16:43.705Z,98819.14
2022-11-19T21:19:11.588Z,98822.70
2022-11-19T21:21:39.886Z,98819.76
2022-11-19T21:24:08.036Z,98819.64
2022-11-19T21:26:35.895Z,98824.23
2022-11-19T21:29:03.827Z,98819.48
2022-11-19T21:31:46.232Z,98817.77
2022-11-19T21:34:17.535Z,98813.40
2022-11-19T21:36:45.856Z,98809.45
2022-11-19T21:39:16.197Z,98810.63
2022-11-19T21:41:44.244Z,98810.70
2022-11-19T21:44:14.310Z,98809.80
2022-11-19T21:46:46.142Z,98812.88
2022-11-19T21:49:13.846Z,98811.42
2022-11-19T21:51:41.475Z,98812.82
2022-11-19T21:54:09.222Z,98814.39
2022-11-19T21:56:38.882Z,98813.91
2022-11-19T21:59:07.376Z,98814.23
2022-11-19T22:01:35.360Z,98813.16
2022-11-19T22:04:04.428Z,98811.10
2022-11-19T22:06:32.405Z,98810.77
2022-11-19T22:09:00.173Z,98809.00
2022-11-19T22:11:31.363Z,98811.66
2022-11-19T22:14:07.958Z,98808.48
2022-11-19T22:16:38.431Z,98804.97
2022-11-19T22:19:06.955Z,98800.97
2022-11-19T22:21:35.020Z,98796.82
2022-11-19T22:24:03.151Z,98795.95
2022-11-19T22:26:31.322Z,98797.61
2022-11-19T22:28:58.932Z,98796.92
2022-11-19T22:31:26.730Z,98800.64
2022-11-19T22:33:54.944Z,98796.02
2022-11-19T22:36:23.402Z,98794.39
2022-11-19T22:38:51.928Z,98794.64
2022-11-19T22:41:21.519Z,98794.17
2022-11-19T22:43:49.782Z,98793.13
2022-11-19T22:46:18.070Z,98791.83
2022-11-19T22:48:45.999Z,98790.14
2022-11-19T22:51:16.024Z,98793.01
2022-11-19T22:53:44.258Z,98794.80
2022-11-19T22:56:16.300Z,98795.36
2022-11-19T22:58:43.982Z,98796.70
2022-11-19T23:01:23.187Z,98789.70
2022-11-19T23:03:51.666Z,98794.59
2022-11-19T23:06:19.687Z,98791.09
2022-11-19T23:08:47.339Z,98788.17
2022-11-19T23:11:16.814Z,98784.86
2022-11-19T23:13:45.031Z,98785.17
2022-11-19T23:16:15.851Z,98781.84
2022-11-19T23:18:51.471Z,98781.33
2022-11-19T23:21:21.943Z,98779.12
2022-11-19T23:23:50.585Z,98774.20
2022-11-19T23:26:21.437Z,98774.58
2022-11-19T23:28:49.666Z,98775.27
2022-11-19T23:31:20.090Z,98771.50
2022-11-19T23:33:48.543Z,98773.34
2022-11-19T23:36:22.058Z,98776.46
2022-11-19T23:38:50.090Z,98781.04
2022-11-19T23:41:19.585Z,98774.17
2022-11-19T23:43:48.350Z,98769.29
2022-11-19T23:46:18.492Z,98765.09
2022-11-19T23:48:47.934Z,98765.62
2022-11-19T23:51:21.729Z,98766.25
2022-11-19T23:53:49.791Z,98768.41
2022-11-19T23:56:18.610Z,98761.55
2022-11-19T23:58:46.477Z,98761.27
